PWSweather.com
Personal Weather Stations
Station Observations
HARSTAD1
Kanebogen, HarstadNO 9411

KanebogenHarstadNO 9411

Lat: 68.7731054, Lon: 16.5496315

Elevation: 213

Station Type: Netatmo Weather Station

http://oddne.net/met/

Latest ConditionsUpdated 8:43:48 AM GMT+01:01 Monday, Dec 10, 2018
Currently Today's Max Today's Min Today's Average
Temperature 28.6°F-1.9°C 30.9°F-0.6°C 28.0°F-2.2°C 29.3°F-1.5°C
Dew Point 25.5°F-3.6°C 25.7°F-3.5°C 24.1°F-4.4°C 24.9°F-3.9°C
Winds 1.9 mph NW3.1 kmh NW 3.1 mph -5.0 kmh - - 1.7 mph 2.7 kmh
Wind Gusts 5.6 mph9.0 kmh 7.5 mph12.1 kmh - -
Humidity 88% 88% 78% 84%
Pressure 29.81 in1009.5 mb 29.81 in1009.5 mb 29.60 in1002.4 mb -
Hour Temp Dew Point Humidity Winds Wind Gusts Pressure Precip Precip Rate Daily Precip Total
08:43 AM 28.6°F-1.9°C 25.5°F-3.6°C 88% 1.9 mph NW3.1 kmh NW 5.6 mph9.0 kmh 29.81 in1009.5 mb 0.00 in0.0 mm 0.00 in0.0 mm 0.00 in0.0 mm
08:33 AM 28.4°F-2.0°C 25.0°F-3.9°C 87% 1.2 mph SW1.9 kmh SW 3.1 mph5.0 kmh 29.80 in1009.1 mb 0.00 in0.0 mm 0.00 in0.0 mm 0.00 in0.0 mm
08:23 AM 28.4°F-2.0°C 24.6°F-4.1°C 86% 1.2 mph WSW1.9 kmh WSW 3.1 mph5.0 kmh 29.80 in1009.1 mb 0.00 in0.0 mm 0.00 in0.0 mm 0.00 in0.0 mm
08:13 AM 28.8°F-1.8°C 25.0°F-3.9°C 86% 1.2 mph NE1.9 kmh NE 6.2 mph10.0 kmh 29.79 in1008.8 mb 0.00 in0.0 mm 0.00 in0.0 mm 0.00 in0.0 mm
08:03 AM 28.6°F-1.9°C 25.2°F-3.8°C 87% 1.9 mph NNE3.1 kmh NNE 7.5 mph12.1 kmh 29.79 in1008.8 mb 0.00 in0.0 mm 0.00 in0.0 mm 0.00 in0.0 mm
07:53 AM 28.6°F-1.9°C 25.2°F-3.8°C 87% 1.2 mph ENE1.9 kmh ENE 4.4 mph7.1 kmh 29.78 in1008.5 mb 0.00 in0.0 mm 0.00 in0.0 mm 0.00 in0.0 mm
07:43 AM 28.4°F-2.0°C 25.0°F-3.9°C 87% 1.2 mph NE1.9 kmh NE 4.4 mph7.1 kmh 29.78 in1008.5 mb 0.00 in0.0 mm 0.00 in0.0 mm 0.00 in0.0 mm
07:33 AM 28.2°F-2.1°C 24.8°F-4.0°C 87% 1.2 mph NE1.9 kmh NE 2.5 mph4.0 kmh 29.77 in1008.1 mb 0.00 in0.0 mm 0.00 in0.0 mm 0.00 in0.0 mm
07:23 AM 28.0°F-2.2°C 24.1°F-4.4°C 85% 1.2 mph W1.9 kmh W 3.7 mph6.0 kmh 29.76 in1007.8 mb 0.00 in0.0 mm 0.00 in0.0 mm 0.00 in0.0 mm
07:13 AM 28.4°F-2.0°C 24.4°F-4.2°C 85% 0.6 mph SSW1.0 kmh SSW 2.5 mph4.0 kmh 29.76 in1007.8 mb 0.00 in0.0 mm 0.00 in0.0 mm 0.00 in0.0 mm
07:03 AM 28.9°F-1.7°C 25.0°F-3.9°C 85% 1.2 mph SW1.9 kmh SW 3.1 mph5.0 kmh 29.75 in1007.5 mb 0.00 in0.0 mm 0.00 in0.0 mm 0.00 in0.0 mm
06:53 AM 28.9°F-1.7°C 25.0°F-3.9°C 85% 1.2 mph WSW1.9 kmh WSW 3.7 mph6.0 kmh 29.75 in1007.5 mb 0.00 in0.0 mm 0.00 in0.0 mm 0.00 in0.0 mm
06:43 AM 28.9°F-1.7°C 24.4°F-4.2°C 83% 1.9 mph NE3.1 kmh NE 5.0 mph8.0 kmh 29.74 in1007.1 mb 0.00 in0.0 mm 0.00 in0.0 mm 0.00 in0.0 mm
06:33 AM 28.9°F-1.7°C 24.4°F-4.2°C 83% 1.9 mph NE3.1 kmh NE 5.0 mph8.0 kmh 29.74 in1007.1 mb 0.00 in0.0 mm 0.00 in0.0 mm 0.00 in0.0 mm
06:25 AM 28.9°F-1.7°C 24.6°F-4.1°C 84% 2.5 mph NNE4.0 kmh NNE 6.8 mph10.9 kmh 29.73 in1006.8 mb 0.00 in0.0 mm 0.00 in0.0 mm 0.00 in0.0 mm
06:13 AM 28.9°F-1.7°C 24.6°F-4.1°C 84% 1.9 mph NNE3.1 kmh NNE 4.4 mph7.1 kmh 29.73 in1006.8 mb 0.00 in0.0 mm 0.00 in0.0 mm 0.00 in0.0 mm
06:03 AM 28.9°F-1.7°C 24.6°F-4.1°C 84% 1.9 mph NE3.1 kmh NE 5.0 mph8.0 kmh 29.73 in1006.8 mb 0.00 in0.0 mm 0.00 in0.0 mm 0.00 in0.0 mm
05:53 AM 28.8°F-1.8°C 24.4°F-4.2°C 84% 3.1 mph NNE5.0 kmh NNE 6.8 mph10.9 kmh 29.72 in1006.4 mb 0.00 in0.0 mm 0.00 in0.0 mm 0.00 in0.0 mm
05:43 AM 28.6°F-1.9°C 24.6°F-4.1°C 85% 1.9 mph NNE3.1 kmh NNE 5.0 mph8.0 kmh 29.72 in1006.4 mb 0.00 in0.0 mm 0.00 in0.0 mm 0.00 in0.0 mm
05:33 AM 28.6°F-1.9°C 24.6°F-4.1°C 85% 1.2 mph NNW1.9 kmh NNW 3.7 mph6.0 kmh 29.71 in1006.1 mb 0.00 in0.0 mm 0.00 in0.0 mm 0.00 in0.0 mm
05:23 AM 28.2°F-2.1°C 24.4°F-4.2°C 86% 1.9 mph N3.1 kmh N 5.0 mph8.0 kmh 29.71 in1006.1 mb 0.00 in0.0 mm 0.00 in0.0 mm 0.00 in0.0 mm
05:13 AM 28.2°F-2.1°C 24.3°F-4.3°C 85% 1.2 mph WSW1.9 kmh WSW 3.7 mph6.0 kmh 29.71 in1006.1 mb 0.00 in0.0 mm 0.00 in0.0 mm 0.00 in0.0 mm
05:03 AM 28.4°F-2.0°C 24.1°F-4.4°C 84% 1.2 mph WSW1.9 kmh WSW 2.5 mph4.0 kmh 29.70 in1005.8 mb 0.00 in0.0 mm 0.00 in0.0 mm 0.00 in0.0 mm
04:53 AM 28.9°F-1.7°C 24.6°F-4.1°C 84% 1.2 mph NNW1.9 kmh NNW 4.4 mph7.1 kmh 29.69 in1005.4 mb 0.00 in0.0 mm 0.00 in0.0 mm 0.00 in0.0 mm
04:43 AM 28.9°F-1.7°C 24.6°F-4.1°C 84% 1.2 mph NNW1.9 kmh NNW 4.4 mph7.1 kmh 29.69 in1005.4 mb 0.00 in0.0 mm 0.00 in0.0 mm 0.00 in0.0 mm
04:33 AM 28.9°F-1.7°C 24.6°F-4.1°C 84% 1.2 mph WSW1.9 kmh WSW 3.7 mph6.0 kmh 29.69 in1005.4 mb 0.00 in0.0 mm 0.00 in0.0 mm 0.00 in0.0 mm
04:23 AM 29.1°F-1.6°C 25.2°F-3.8°C 85% 1.9 mph N3.1 kmh N 4.4 mph7.1 kmh 29.69 in1005.4 mb 0.00 in0.0 mm 0.00 in0.0 mm 0.00 in0.0 mm
04:13 AM 29.1°F-1.6°C 25.2°F-3.8°C 85% 1.9 mph NNE3.1 kmh NNE 5.6 mph9.0 kmh 29.68 in1005.1 mb 0.00 in0.0 mm 0.00 in0.0 mm 0.00 in0.0 mm
04:03 AM 29.1°F-1.6°C 25.2°F-3.8°C 85% 2.5 mph NNE4.0 kmh NNE 5.6 mph9.0 kmh 29.68 in1005.1 mb 0.00 in0.0 mm 0.00 in0.0 mm 0.00 in0.0 mm
03:53 AM 28.9°F-1.7°C 25.0°F-3.9°C 85% 1.9 mph N3.1 kmh N 5.6 mph9.0 kmh 29.67 in1004.7 mb 0.00 in0.0 mm 0.00 in0.0 mm 0.00 in0.0 mm
03:43 AM 28.9°F-1.7°C 24.6°F-4.1°C 84% 1.9 mph WNW3.1 kmh WNW 5.6 mph9.0 kmh 29.67 in1004.7 mb 0.00 in0.0 mm 0.00 in0.0 mm 0.00 in0.0 mm
03:33 AM 29.3°F-1.5°C 25.0°F-3.9°C 84% 1.9 mph N3.1 kmh N 6.2 mph10.0 kmh 29.67 in1004.7 mb 0.00 in0.0 mm 0.00 in0.0 mm 0.00 in0.0 mm
03:23 AM 29.3°F-1.5°C 25.0°F-3.9°C 84% 1.9 mph N3.1 kmh N 6.2 mph10.0 kmh 29.67 in1004.7 mb 0.00 in0.0 mm 0.00 in0.0 mm 0.00 in0.0 mm
03:13 AM 29.3°F-1.5°C 25.0°F-3.9°C 84% 1.2 mph NE1.9 kmh NE 5.6 mph9.0 kmh 29.66 in1004.4 mb 0.00 in0.0 mm 0.00 in0.0 mm 0.00 in0.0 mm
03:03 AM 29.5°F-1.4°C 25.2°F-3.8°C 84% 1.9 mph NNW3.1 kmh NNW 5.0 mph8.0 kmh 29.66 in1004.4 mb 0.00 in0.0 mm 0.00 in0.0 mm 0.00 in0.0 mm
02:53 AM 29.7°F-1.3°C 25.3°F-3.7°C 84% 0.6 mph NNW1.0 kmh NNW 3.7 mph6.0 kmh 29.65 in1004.1 mb 0.00 in0.0 mm 0.00 in0.0 mm 0.00 in0.0 mm
02:43 AM 29.7°F-1.3°C 25.3°F-3.7°C 84% 1.2 mph NE1.9 kmh NE 5.0 mph8.0 kmh 29.65 in1004.1 mb 0.00 in0.0 mm 0.00 in0.0 mm 0.00 in0.0 mm
02:33 AM 29.7°F-1.3°C 24.8°F-4.0°C 82% 1.2 mph WNW1.9 kmh WNW 3.7 mph6.0 kmh 29.65 in1004.1 mb 0.00 in0.0 mm 0.00 in0.0 mm 0.00 in0.0 mm
02:23 AM 30.0°F-1.1°C 25.2°F-3.8°C 82% 1.2 mph NE1.9 kmh NE 4.4 mph7.1 kmh 29.64 in1003.7 mb 0.00 in0.0 mm 0.00 in0.0 mm 0.00 in0.0 mm
02:13 AM 30.2°F-1.0°C 25.5°F-3.6°C 83% 1.9 mph NE3.1 kmh NE 5.0 mph8.0 kmh 29.64 in1003.7 mb 0.00 in0.0 mm 0.00 in0.0 mm 0.00 in0.0 mm
02:04 AM 30.2°F-1.0°C 25.5°F-3.6°C 83% 1.9 mph NNE3.1 kmh NNE 6.2 mph10.0 kmh 29.63 in1003.4 mb 0.00 in0.0 mm 0.00 in0.0 mm 0.00 in0.0 mm
01:53 AM 30.4°F-0.9°C 25.5°F-3.6°C 82% 2.5 mph NE4.0 kmh NE 6.2 mph10.0 kmh 29.63 in1003.4 mb 0.00 in0.0 mm 0.00 in0.0 mm 0.00 in0.0 mm
01:43 AM 30.6°F-0.8°C 25.3°F-3.7°C 81% 1.2 mph SSE1.9 kmh SSE 3.7 mph6.0 kmh 29.62 in1003.0 mb 0.00 in0.0 mm 0.00 in0.0 mm 0.00 in0.0 mm
01:33 AM 30.6°F-0.8°C 25.3°F-3.7°C 81% 1.2 mph SSE1.9 kmh SSE 3.7 mph6.0 kmh 29.62 in1003.0 mb 0.00 in0.0 mm 0.00 in0.0 mm 0.00 in0.0 mm
01:23 AM 30.7°F-0.7°C 25.2°F-3.8°C 80% 1.2 mph NE1.9 kmh NE 5.0 mph8.0 kmh 29.62 in1003.0 mb 0.00 in0.0 mm 0.00 in0.0 mm 0.00 in0.0 mm
01:13 AM 30.7°F-0.7°C 25.0°F-3.9°C 79% 2.5 mph NE4.0 kmh NE 6.2 mph10.0 kmh 29.62 in1003.0 mb 0.00 in0.0 mm 0.00 in0.0 mm 0.00 in0.0 mm
01:03 AM 30.7°F-0.7°C 25.0°F-3.9°C 79% 2.5 mph NE4.0 kmh NE 5.0 mph8.0 kmh 29.62 in1003.0 mb 0.00 in0.0 mm 0.00 in0.0 mm 0.00 in0.0 mm
12:53 AM 30.7°F-0.7°C 25.2°F-3.8°C 80% 1.9 mph NE3.1 kmh NE 4.4 mph7.1 kmh 29.62 in1003.0 mb 0.00 in0.0 mm 0.00 in0.0 mm 0.00 in0.0 mm
12:43 AM 30.9°F-0.6°C 25.7°F-3.5°C 81% 1.2 mph NNE1.9 kmh NNE 4.4 mph7.1 kmh 29.61 in1002.7 mb 0.00 in0.0 mm 0.00 in0.0 mm 0.00 in0.0 mm
12:33 AM 30.7°F-0.7°C 25.2°F-3.8°C 80% 2.5 mph ENE4.0 kmh ENE 5.6 mph9.0 kmh 29.61 in1002.7 mb 0.00 in0.0 mm 0.00 in0.0 mm 0.00 in0.0 mm
12:23 AM 30.7°F-0.7°C 25.0°F-3.9°C 79% 1.9 mph ENE3.1 kmh ENE 5.0 mph8.0 kmh 29.61 in1002.7 mb 0.00 in0.0 mm 0.00 in0.0 mm 0.00 in0.0 mm
12:13 AM 30.7°F-0.7°C 24.6°F-4.1°C 78% 1.9 mph NE3.1 kmh NE 4.4 mph7.1 kmh 29.61 in1002.7 mb 0.00 in0.0 mm 0.00 in0.0 mm 0.00 in0.0 mm
12:03 AM 30.7°F-0.7°C 24.6°F-4.1°C 78% 3.1 mph NE5.0 kmh NE 7.5 mph12.1 kmh 29.60 in1002.4 mb 0.00 in0.0 mm 0.00 in0.0 mm 0.00 in0.0 mm